Strona główna
METAR-TAF:

METAR-TAF

Lotnisko :

Platforma wiertnicza

Hoorn-a, Holandia

Szerokość geograficzna: 52-55-05N, Długość geograficzna: 4-09-01E, wysokość: 41 m

Aktualna obserwacja pogody

Raport powstał 23 minut temu, godzina 03:55 UTC
Wiatr 21 kt od zachodnio-południowy zachód
Temperatura 9°C
Wilgotność 61%
Ciśnienie 1006 hPa
Widzialność 10 km lub więcej
Mało chmury na wysokości 3500 ft
Rozproszone chmury na wysokości 4400 ft

METAR: EHQE 110355Z AUTO 25021KT 9999 FEW035 SCT044 09/02 Q1006

czas: 05:18 (04:18 UTC)


TAF: brakujący

Obserwacja i prognoza pogody dla ponad 4000 lotnisk (raport METAR i TAF).

Dostępne stacje oznaczono żółtymi i czerwonymi punktami na mapie.

Najedź kursorem aby zobaczyć nazwę stacji.

Kliknij aby zobaczyć obserwacje i prognozy pogody.

Aby zmienić mapę: kliknij na zielony przycisk z czarnym krzyżykiem, aby powiększyć; na zielony przycisk z myślnikiem, aby pomniejszyć; na zielone strzałki, aby przejść do map sąsiednich.


METAR-TAF: